Time;durP1;ratioP1;P1;durP2;ratioP2;P2;SDS_P1;SDS_P2;PMS_P1;PMS_P2;Temp;Humidity;BMP_temperature;BMP_pressure;BME280_temperature;BME280_humidity;BME280_pressure;Samples;Min_cycle;Max_cycle;Signal;HPM_P1;HPM_P2
2021/09/24 00:00:49;;;;;;;4.13;3.73;;;14.40;99.90;;;;;;5034160;28;20280;-59
2021/09/24 00:03:15;;;;;;;5.93;4.40;;;14.40;99.90;;;;;;5034182;28;20210;-58
2021/09/24 00:05:42;;;;;;;6.23;4.00;;;14.40;99.90;;;;;;5033684;28;20214;-59
2021/09/24 00:08:09;;;;;;;5.37;3.70;;;14.40;99.90;;;;;;5033584;28;20666;-59
2021/09/24 00:10:36;;;;;;;4.93;3.80;;;14.40;99.90;;;;;;5033826;28;20253;-58
2021/09/24 00:13:02;;;;;;;5.27;3.80;;;14.40;99.90;;;;;;5034088;28;20229;-60
2021/09/24 00:15:31;;;;;;;7.10;3.90;;;14.40;99.90;;;;;;5033717;28;20206;-58
2021/09/24 00:17:58;;;;;;;7.63;3.50;;;14.50;99.90;;;;;;5033487;28;20280;-58
2021/09/24 00:20:24;;;;;;;4.13;3.70;;;14.50;99.90;;;;;;5033499;28;20234;-60
2021/09/24 00:22:51;;;;;;;7.03;3.90;;;14.50;99.90;;;;;;5033631;28;20206;-58
2021/09/24 00:25:18;;;;;;;7.60;4.13;;;14.60;99.90;;;;;;5033708;28;20214;-59
2021/09/24 00:27:45;;;;;;;4.67;3.70;;;14.60;99.90;;;;;;5033697;28;20603;-61
2021/09/24 00:30:13;;;;;;;5.07;3.60;;;14.60;99.90;;;;;;5033327;28;20238;-59
2021/09/24 00:32:41;;;;;;;6.23;3.60;;;14.60;99.90;;;;;;5033880;28;20614;-60
2021/09/24 00:35:08;;;;;;;7.47;3.53;;;14.60;99.90;;;;;;5033192;28;20213;-59
2021/09/24 00:37:35;;;;;;;5.37;3.80;;;14.60;99.90;;;;;;5032914;28;20723;-60
2021/09/24 00:40:02;;;;;;;4.77;3.63;;;14.50;99.90;;;;;;5033166;28;20233;-59
2021/09/24 00:42:28;;;;;;;4.97;4.33;;;14.50;99.90;;;;;;5033670;28;20210;-59
2021/09/24 00:44:55;;;;;;;3.90;3.50;;;14.50;99.90;;;;;;5032982;28;20210;-60
2021/09/24 00:47:22;;;;;;;4.53;3.70;;;14.50;99.90;;;;;;5033043;28;20237;-60
2021/09/24 00:49:51;;;;;;;4.90;3.83;;;14.50;99.90;;;;;;5032825;28;20659;-60
2021/09/24 00:52:18;;;;;;;5.20;3.83;;;14.50;99.90;;;;;;5032798;28;20202;-60
2021/09/24 00:54:47;;;;;;;5.37;4.20;;;14.50;99.90;;;;;;5032614;28;20217;-59
2021/09/24 00:57:14;;;;;;;4.20;3.80;;;14.40;99.90;;;;;;5033072;28;20210;-60
2021/09/24 00:59:41;;;;;;;4.83;4.13;;;14.40;99.90;;;;;;5032660;28;20230;-58
2021/09/24 01:02:07;;;;;;;5.23;3.93;;;14.30;99.90;;;;;;5032742;28;20280;-59
2021/09/24 01:04:34;;;;;;;4.27;3.63;;;14.30;99.90;;;;;;5032715;28;20276;-59
2021/09/24 01:07:03;;;;;;;5.20;3.87;;;14.20;99.90;;;;;;5032815;28;20404;-59
2021/09/24 01:09:31;;;;;;;5.43;4.07;;;14.20;99.90;;;;;;5032300;28;20206;-60
2021/09/24 01:11:58;;;;;;;6.03;3.80;;;14.20;99.90;;;;;;5032559;28;20241;-59
2021/09/24 01:14:28;;;;;;;6.77;4.00;;;14.20;99.90;;;;;;5032584;28;20597;-60
2021/09/24 01:16:55;;;;;;;4.83;3.93;;;14.20;99.90;;;;;;5032407;28;20210;-58
2021/09/24 01:19:22;;;;;;;5.83;4.43;;;14.20;99.90;;;;;;5032145;28;20226;-60
2021/09/24 01:21:51;;;;;;;4.60;3.93;;;14.30;99.90;;;;;;5032534;28;20272;-59
2021/09/24 01:24:18;;;;;;;6.77;4.10;;;14.20;99.90;;;;;;5032261;28;20217;-60
2021/09/24 01:26:49;;;;;;;4.97;3.90;;;14.30;99.90;;;;;;5032811;28;20252;-59
2021/09/24 01:29:16;;;;;;;5.07;3.70;;;14.30;99.90;;;;;;5032151;28;20210;-59
2021/09/24 01:31:44;;;;;;;8.80;4.30;;;14.30;99.90;;;;;;5032032;28;20237;-59
2021/09/24 01:34:11;;;;;;;6.50;4.10;;;14.30;99.90;;;;;;5032183;28;20212;-58
2021/09/24 01:36:38;;;;;;;5.73;4.03;;;14.30;99.90;;;;;;5032122;28;20903;-59
2021/09/24 01:39:08;;;;;;;5.40;3.97;;;14.30;99.90;;;;;;5032026;28;20241;-58
2021/09/24 01:41:37;;;;;;;6.87;3.90;;;14.30;99.90;;;;;;5032053;28;20241;-59
2021/09/24 01:44:04;;;;;;;5.67;3.87;;;14.30;99.90;;;;;;5032081;28;20253;-60
2021/09/24 01:46:31;;;;;;;4.40;3.97;;;14.30;99.90;;;;;;5031915;28;20619;-60
2021/09/24 01:48:57;;;;;;;5.60;4.00;;;14.30;99.90;;;;;;5032041;28;20206;-59
2021/09/24 01:51:24;;;;;;;4.83;4.03;;;14.30;99.90;;;;;;5031903;28;20222;-61
2021/09/24 01:53:51;;;;;;;5.13;4.20;;;14.40;99.90;;;;;;5031775;28;20202;-57
2021/09/24 01:56:22;;;;;;;5.37;4.10;;;14.40;99.90;;;;;;5031421;28;20589;-57
2021/09/24 01:58:48;;;;;;;7.87;4.50;;;14.40;99.90;;;;;;5031539;28;20268;-59
2021/09/24 02:01:15;;;;;;;7.37;4.10;;;14.40;99.90;;;;;;5031534;28;20218;-61
2021/09/24 02:03:42;;;;;;;5.40;3.50;;;14.50;99.90;;;;;;5031503;28;20206;-62
2021/09/24 02:06:08;;;;;;;5.13;3.90;;;14.60;99.90;;;;;;5031582;28;20210;-61
2021/09/24 02:08:35;;;;;;;4.80;4.27;;;14.60;99.90;;;;;;5031515;28;20203;-61
2021/09/24 02:11:02;;;;;;;4.40;3.87;;;14.60;99.90;;;;;;5031433;28;20234;-61
2021/09/24 02:13:30;;;;;;;7.53;4.00;;;14.60;99.90;;;;;;5031200;28;20210;-61
2021/09/24 02:15:56;;;;;;;4.70;4.20;;;14.60;99.90;;;;;;5031648;28;20213;-60
2021/09/24 02:18:23;;;;;;;6.57;4.07;;;14.60;99.90;;;;;;5031276;28;20230;-59
2021/09/24 02:20:50;;;;;;;6.67;3.87;;;14.60;99.90;;;;;;5031309;28;20222;-61
2021/09/24 02:23:16;;;;;;;4.37;3.97;;;14.60;99.90;;;;;;5031108;28;20736;-61
2021/09/24 02:25:43;;;;;;;7.13;4.13;;;14.50;99.90;;;;;;5031268;28;20210;-61
2021/09/24 02:28:10;;;;;;;7.17;4.10;;;14.40;99.90;;;;;;5030988;28;20605;-61
2021/09/24 02:30:38;;;;;;;5.63;3.97;;;14.30;99.90;;;;;;5031194;28;20226;-61
2021/09/24 02:33:05;;;;;;;5.17;4.30;;;14.30;99.90;;;;;;5031283;28;20210;-62
2021/09/24 02:35:32;;;;;;;6.27;4.63;;;14.30;99.90;;;;;;5030956;28;20214;-60
2021/09/24 02:37:58;;;;;;;6.43;4.40;;;14.20;99.90;;;;;;5030878;28;20209;-61
2021/09/24 02:40:25;;;;;;;8.67;4.80;;;14.20;99.90;;;;;;5030907;28;20230;-62
2021/09/24 02:42:52;;;;;;;7.47;4.87;;;14.10;99.90;;;;;;5030952;28;20206;-60
2021/09/24 02:45:18;;;;;;;5.77;4.60;;;14.00;99.90;;;;;;5031019;28;20633;-60
2021/09/24 02:47:47;;;;;;;10.77;5.20;;;14.00;99.90;;;;;;5030935;28;20218;-61
2021/09/24 02:50:13;;;;;;;8.53;5.00;;;14.00;99.90;;;;;;5030982;28;20226;-61
2021/09/24 02:52:40;;;;;;;8.60;5.30;;;13.90;99.90;;;;;;5030980;28;20213;-62
2021/09/24 02:55:08;;;;;;;8.47;4.93;;;13.80;99.90;;;;;;5030758;28;20210;-60
2021/09/24 02:57:35;;;;;;;13.27;8.43;;;13.80;99.90;;;;;;5030705;28;20709;-59
2021/09/24 03:00:03;;;;;;;6.13;5.30;;;13.80;99.90;;;;;;5030813;28;20234;-60
2021/09/24 03:02:29;;;;;;;7.77;5.33;;;13.70;99.90;;;;;;5030930;28;20206;-61
2021/09/24 03:04:57;;;;;;;10.33;5.37;;;13.70;99.90;;;;;;5030727;28;20214;-61
2021/09/24 03:07:24;;;;;;;9.20;5.63;;;13.70;99.90;;;;;;5030807;28;20206;-61
2021/09/24 03:09:51;;;;;;;7.87;5.60;;;13.60;99.90;;;;;;5034775;28;20222;-61
2021/09/24 03:12:17;;;;;;;9.33;5.37;;;13.60;99.90;;;;;;5035119;28;20217;-60
2021/09/24 03:14:44;;;;;;;6.93;5.70;;;13.40;99.90;;;;;;5034891;28;20206;-61
2021/09/24 03:17:11;;;;;;;7.93;6.27;;;13.40;99.90;;;;;;5034976;28;20206;-62
2021/09/24 03:19:37;;;;;;;7.83;5.60;;;13.30;99.90;;;;;;5034809;28;20226;-62
2021/09/24 03:22:05;;;;;;;7.23;5.43;;;13.30;99.90;;;;;;5034888;28;20206;-61
2021/09/24 03:24:32;;;;;;;6.73;5.30;;;13.20;99.90;;;;;;5034505;28;20217;-61
2021/09/24 03:26:59;;;;;;;6.27;5.10;;;13.20;99.90;;;;;;5034829;28;20236;-61
2021/09/24 03:29:26;;;;;;;6.67;5.83;;;13.10;99.90;;;;;;5034358;28;20516;-61
2021/09/24 03:31:52;;;;;;;6.63;5.33;;;13.00;99.90;;;;;;5034601;28;20202;-60
2021/09/24 03:34:19;;;;;;;6.57;5.57;;;13.00;99.90;;;;;;5034398;28;20210;-61
2021/09/24 03:36:46;;;;;;;8.30;5.27;;;13.00;99.90;;;;;;5034411;28;20276;-60
2021/09/24 03:39:14;;;;;;;5.23;4.73;;;12.90;99.90;;;;;;5034237;28;20226;-61
2021/09/24 03:41:43;;;;;;;5.33;4.83;;;12.90;99.90;;;;;;5034441;28;20230;-61
2021/09/24 03:44:11;;;;;;;7.17;5.10;;;12.90;99.90;;;;;;5034030;28;20210;-62
2021/09/24 03:46:38;;;;;;;8.17;4.60;;;12.80;99.90;;;;;;5034334;28;20206;-62
2021/09/24 03:49:05;;;;;;;7.03;4.50;;;12.70;99.90;;;;;;5034824;28;20309;-61
2021/09/24 03:51:32;;;;;;;7.27;4.60;;;12.70;99.90;;;;;;5034124;28;20233;-62
2021/09/24 03:53:59;;;;;;;6.70;4.90;;;12.60;99.90;;;;;;5034068;28;20206;-62
2021/09/24 03:56:27;;;;;;;4.83;4.07;;;12.50;99.90;;;;;;5034198;28;20206;-61
2021/09/24 03:58:54;;;;;;;4.60;4.17;;;12.40;99.90;;;;;;5033796;28;20226;-61
2021/09/24 04:01:21;;;;;;;5.50;4.60;;;12.40;99.90;;;;;;5033818;28;20229;-61
2021/09/24 04:03:47;;;;;;;6.63;4.70;;;12.30;99.90;;;;;;5035215;28;20210;-61
2021/09/24 04:06:14;;;;;;;4.83;4.13;;;12.20;99.90;;;;;;5034323;28;20206;-60
2021/09/24 04:08:41;;;;;;;5.60;4.67;;;12.20;99.90;;;;;;5033933;28;20621;-61
2021/09/24 04:11:07;;;;;;;6.57;4.63;;;12.10;99.90;;;;;;5056487;22;20644;-63
2021/09/24 04:13:35;;;;;;;6.00;4.07;;;12.10;99.90;;;;;;5033458;28;20202;-63
2021/09/24 04:16:02;;;;;;;6.17;4.63;;;12.00;99.90;;;;;;5033549;28;20207;-63
2021/09/24 04:18:29;;;;;;;8.63;5.00;;;11.90;99.90;;;;;;5032874;28;20203;-63
2021/09/24 04:20:55;;;;;;;6.67;4.57;;;11.90;99.90;;;;;;5033740;28;20237;-63
2021/09/24 04:23:22;;;;;;;5.50;4.90;;;11.90;99.90;;;;;;5033925;28;20206;-63
2021/09/24 04:25:49;;;;;;;8.20;4.80;;;11.90;99.90;;;;;;5034263;28;20214;-63
2021/09/24 04:28:15;;;;;;;7.27;5.10;;;11.90;99.90;;;;;;5033390;28;20560;-63
2021/09/24 04:30:43;;;;;;;6.20;4.70;;;11.90;99.90;;;;;;5033513;28;20230;-63
2021/09/24 04:33:10;;;;;;;6.67;5.00;;;11.80;99.90;;;;;;5033501;28;20210;-63
2021/09/24 04:35:37;;;;;;;5.37;4.83;;;11.80;99.90;;;;;;5033295;28;20209;-64
2021/09/24 04:38:04;;;;;;;5.77;4.80;;;11.70;99.90;;;;;;5033006;28;20213;-64
2021/09/24 04:40:32;;;;;;;5.93;4.60;;;11.70;99.90;;;;;;5033061;28;20240;-64
2021/09/24 04:42:59;;;;;;;7.23;4.90;;;11.70;99.90;;;;;;5032975;28;20214;-64
2021/09/24 04:45:26;;;;;;;9.03;4.63;;;11.60;99.90;;;;;;5032894;28;20206;-65
2021/09/24 04:47:54;;;;;;;5.73;4.80;;;11.60;99.90;;;;;;5032743;28;20268;-64
2021/09/24 04:50:21;;;;;;;7.33;5.00;;;11.60;99.90;;;;;;5033025;28;20230;-64
2021/09/24 04:52:47;;;;;;;6.60;5.10;;;11.60;99.90;;;;;;5032917;28;20213;-64
2021/09/24 04:55:15;;;;;;;7.40;5.30;;;11.50;99.90;;;;;;5032626;28;20244;-64
2021/09/24 04:57:41;;;;;;;10.20;5.47;;;11.50;99.90;;;;;;5032925;28;20252;-64
2021/09/24 05:00:11;;;;;;;8.87;4.80;;;11.40;99.90;;;;;;5032585;28;20357;-64
2021/09/24 05:02:38;;;;;;;7.20;4.77;;;11.40;99.90;;;;;;5032750;28;20209;-64
2021/09/24 05:05:07;;;;;;;8.80;5.47;;;11.40;99.90;;;;;;5032455;28;20209;-64
2021/09/24 05:07:34;;;;;;;6.77;4.83;;;11.30;99.90;;;;;;5032552;28;20213;-64
2021/09/24 05:10:01;;;;;;;6.57;5.67;;;11.30;99.90;;;;;;5032216;28;20206;-64
2021/09/24 05:12:27;;;;;;;6.07;5.20;;;11.30;99.90;;;;;;5032673;28;20218;-64
2021/09/24 05:14:54;;;;;;;11.00;6.67;;;11.30;99.90;;;;;;5032537;28;20618;-64
2021/09/24 05:17:21;;;;;;;10.23;6.23;;;11.30;99.90;;;;;;5032446;28;20210;-64
2021/09/24 05:19:47;;;;;;;12.73;8.60;;;11.30;99.90;;;;;;5032467;28;20222;-64
2021/09/24 05:22:15;;;;;;;8.83;6.00;;;11.30;99.90;;;;;;5032397;28;20233;-64
2021/09/24 05:24:42;;;;;;;12.23;5.67;;;11.40;99.90;;;;;;5032265;28;20206;-64
2021/09/24 05:27:09;;;;;;;15.83;9.40;;;11.50;99.90;;;;;;5032571;28;20202;-64
2021/09/24 05:29:36;;;;;;;13.03;7.73;;;11.60;99.90;;;;;;5032604;28;20676;-65
2021/09/24 05:32:03;;;;;;;12.30;7.43;;;11.70;99.90;;;;;;5031545;28;20645;-65
2021/09/24 05:34:29;;;;;;;9.03;6.30;;;11.80;99.90;;;;;;5032254;28;20221;-64
2021/09/24 05:36:56;;;;;;;12.03;5.23;;;11.90;99.90;;;;;;5033086;28;20217;-64
2021/09/24 05:39:24;;;;;;;7.93;6.00;;;11.90;99.90;;;;;;5032350;28;20222;-64
2021/09/24 05:41:51;;;;;;;7.07;5.67;;;12.10;99.90;;;;;;5031770;28;20280;-64
2021/09/24 05:44:17;;;;;;;9.10;7.07;;;12.10;99.90;;;;;;5031829;28;20210;-64
2021/09/24 05:46:44;;;;;;;9.37;5.60;;;12.20;99.90;;;;;;5031869;28;20642;-64
2021/09/24 05:49:11;;;;;;;7.00;5.53;;;12.20;99.90;;;;;;5031697;28;20260;-64
2021/09/24 05:51:38;;;;;;;7.70;6.27;;;12.30;99.90;;;;;;5031717;28;20226;-63
2021/09/24 05:54:04;;;;;;;12.23;7.17;;;12.30;99.90;;;;;;5032081;28;20682;-64
2021/09/24 05:56:32;;;;;;;14.47;6.77;;;12.30;99.90;;;;;;5031913;28;20210;-64
2021/09/24 05:58:59;;;;;;;10.23;6.37;;;12.40;99.90;;;;;;5031686;28;20285;-64
2021/09/24 06:01:26;;;;;;;9.27;5.60;;;12.50;99.90;;;;;;5031928;28;20226;-65
2021/09/24 06:03:54;;;;;;;10.23;6.47;;;12.50;99.90;;;;;;5031477;28;20259;-64
2021/09/24 06:06:20;;;;;;;7.70;5.17;;;12.60;99.90;;;;;;5031831;28;20586;-64
2021/09/24 06:08:50;;;;;;;8.03;5.23;;;12.70;99.90;;;;;;5031459;28;20219;-64
2021/09/24 06:11:17;;;;;;;7.97;6.00;;;12.70;99.90;;;;;;5031671;28;20230;-64
2021/09/24 06:13:45;;;;;;;9.47;5.77;;;12.80;99.90;;;;;;5032179;28;20214;-64
2021/09/24 06:16:11;;;;;;;8.93;5.50;;;12.90;99.90;;;;;;5031999;28;20241;-64
2021/09/24 06:18:38;;;;;;;9.10;4.90;;;13.30;99.90;;;;;;5031331;28;20210;-63
2021/09/24 06:21:05;;;;;;;8.47;4.80;;;14.10;99.90;;;;;;5031100;28;20237;-64
2021/09/24 06:23:32;;;;;;;6.83;5.37;;;15.30;99.90;;;;;;5030974;28;20218;-64
2021/09/24 06:25:59;;;;;;;8.43;6.13;;;16.60;99.90;;;;;;5031364;28;20210;-64
2021/09/24 06:28:26;;;;;;;11.10;6.20;;;17.70;99.90;;;;;;5031191;28;20217;-64
2021/09/24 06:30:54;;;;;;;6.93;4.10;;;18.80;99.90;;;;;;5031007;28;20222;-64
2021/09/24 06:33:21;;;;;;;6.68;4.05;;;19.70;99.90;;;;;;5031099;28;20635;-64
2021/09/24 06:35:48;;;;;;;5.05;3.72;;;20.30;99.90;;;;;;5031044;28;20268;-64
2021/09/24 06:38:15;;;;;;;5.97;4.00;;;20.70;99.90;;;;;;5030834;28;20268;-64
2021/09/24 06:40:41;;;;;;;8.50;3.92;;;21.20;99.90;;;;;;5030908;28;20729;-64
2021/09/24 06:43:09;;;;;;;7.43;4.13;;;21.80;99.90;;;;;;5030716;28;20214;-64
2021/09/24 06:45:36;;;;;;;8.80;4.53;;;22.20;99.90;;;;;;5030946;28;20288;-64
2021/09/24 06:48:05;;;;;;;5.63;4.25;;;22.70;99.90;;;;;;5030759;28;20233;-64
2021/09/24 06:50:32;;;;;;;9.80;4.43;;;23.10;99.90;;;;;;5030533;28;20483;-64
2021/09/24 06:52:58;;;;;;;8.25;4.35;;;22.50;99.90;;;;;;5031086;28;20206;-64
2021/09/24 06:55:25;;;;;;;7.03;4.72;;;22.30;99.90;;;;;;5030863;28;20213;-64
2021/09/24 06:57:53;;;;;;;6.70;4.35;;;22.10;99.90;;;;;;5030697;28;20682;-64
2021/09/24 07:00:20;;;;;;;4.88;4.00;;;21.80;99.90;;;;;;5030683;28;20276;-64
2021/09/24 07:02:47;;;;;;;5.82;4.47;;;22.20;99.90;;;;;;5031276;28;20213;-64
2021/09/24 07:05:15;;;;;;;5.38;4.05;;;22.90;99.90;;;;;;5030671;28;20210;-64
2021/09/24 07:07:42;;;;;;;7.60;4.35;;;23.30;99.90;;;;;;5031018;28;20280;-64
2021/09/24 07:10:10;;;;;;;5.13;4.13;;;23.50;99.90;;;;;;5030643;28;20205;-64
2021/09/24 07:12:37;;;;;;;6.95;4.75;;;23.60;99.90;;;;;;5030776;28;20206;-64
2021/09/24 07:15:05;;;;;;;6.78;4.55;;;23.20;99.90;;;;;;5030267;28;20206;-64
2021/09/24 07:17:32;;;;;;;5.57;4.25;;;23.30;99.90;;;;;;5030511;28;20210;-64
2021/09/24 07:19:59;;;;;;;5.38;4.32;;;23.30;99.90;;;;;;5030477;28;20234;-64
2021/09/24 07:22:27;;;;;;;5.65;4.90;;;22.60;99.90;;;;;;5030963;28;20206;-64
2021/09/24 07:24:54;;;;;;;5.72;5.03;;;21.80;99.90;;;;;;5030585;28;20206;-63
2021/09/24 07:27:22;;;;;;;5.95;5.07;;;21.10;99.90;;;;;;5030564;28;20210;-64
2021/09/24 07:29:49;;;;;;;8.30;4.90;;;21.10;99.90;;;;;;5030223;28;20627;-64
2021/09/24 07:32:16;;;;;;;7.40;5.30;;;21.10;99.90;;;;;;5029995;28;20206;-64
2021/09/24 07:34:43;;;;;;;7.85;5.13;;;20.70;99.90;;;;;;5030157;28;20229;-64
2021/09/24 07:37:11;;;;;;;7.63;5.60;;;20.30;99.90;;;;;;5030540;28;20210;-64
2021/09/24 07:39:39;;;;;;;8.13;4.78;;;20.00;99.90;;;;;;5030448;28;20222;-64
2021/09/24 07:42:07;;;;;;;6.65;5.38;;;20.40;99.90;;;;;;5030158;28;20277;-65
2021/09/24 07:44:34;;;;;;;6.53;5.18;;;21.30;99.90;;;;;;5030099;28;20213;-64
2021/09/24 07:47:00;;;;;;;10.90;5.30;;;22.10;99.90;;;;;;5030437;28;20236;-64
2021/09/24 07:49:27;;;;;;;6.65;4.65;;;22.60;99.90;;;;;;5030262;28;20206;-65
2021/09/24 07:51:54;;;;;;;8.38;5.70;;;22.50;99.90;;;;;;5030236;28;20280;-65
2021/09/24 07:54:21;;;;;;;6.95;4.95;;;22.50;99.90;;;;;;5031453;28;20585;-65
2021/09/24 07:56:50;;;;;;;7.00;5.43;;;22.50;99.90;;;;;;5033948;28;20264;-65
2021/09/24 07:59:16;;;;;;;5.53;4.40;;;22.40;99.90;;;;;;5033658;28;20677;-65
2021/09/24 08:01:43;;;;;;;7.78;5.68;;;22.20;99.90;;;;;;5033842;28;20230;-65
2021/09/24 08:04:10;;;;;;;7.43;4.72;;;22.10;99.90;;;;;;5033711;28;20293;-64
2021/09/24 08:06:37;;;;;;;7.80;5.47;;;21.50;99.90;;;;;;5034041;28;20210;-65
2021/09/24 08:09:04;;;;;;;6.32;4.82;;;20.90;99.90;;;;;;5033807;28;20202;-65
2021/09/24 08:11:31;;;;;;;10.35;5.25;;;20.60;99.90;;;;;;5033767;28;20237;-65
2021/09/24 08:13:59;;;;;;;6.65;5.25;;;20.50;99.90;;;;;;5033328;28;20206;-64
2021/09/24 08:16:25;;;;;;;7.30;5.07;;;20.40;99.90;;;;;;5033737;28;20219;-65
2021/09/24 08:18:52;;;;;;;8.55;5.43;;;20.50;99.90;;;;;;5033947;28;20202;-65
2021/09/24 08:21:21;;;;;;;7.82;5.30;;;20.50;99.90;;;;;;5033571;28;20231;-64
2021/09/24 08:23:48;;;;;;;7.03;5.45;;;20.90;99.90;;;;;;5033498;28;20303;-65
2021/09/24 08:26:15;;;;;;;7.05;5.32;;;21.30;99.90;;;;;;5033292;28;20210;-65
2021/09/24 08:28:41;;;;;;;8.25;5.45;;;21.50;99.90;;;;;;5033116;28;20202;-66
2021/09/24 08:31:09;;;;;;;12.93;5.07;;;21.70;99.90;;;;;;5033101;28;20233;-64
2021/09/24 08:33:37;;;;;;;10.18;5.53;;;21.90;99.90;;;;;;5033144;28;20217;-64
2021/09/24 08:36:04;;;;;;;6.88;4.97;;;22.10;99.90;;;;;;5033666;28;20202;-65
2021/09/24 08:38:31;;;;;;;8.98;4.88;;;22.30;99.90;;;;;;5033066;28;20213;-64
2021/09/24 08:40:58;;;;;;;8.38;4.47;;;22.50;99.90;;;;;;5032983;28;20234;-65
2021/09/24 08:43:25;;;;;;;6.07;4.55;;;22.50;99.90;;;;;;5032953;28;20670;-65
2021/09/24 08:45:51;;;;;;;9.35;5.10;;;22.80;99.90;;;;;;5033108;28;20260;-65
2021/09/24 08:48:20;;;;;;;6.97;4.10;;;23.10;99.90;;;;;;5033019;28;20206;-65
2021/09/24 08:50:50;;;;;;;7.90;4.47;;;23.30;99.90;;;;;;5032927;28;20356;-65
2021/09/24 08:53:19;;;;;;;6.20;4.28;;;23.30;99.90;;;;;;5032813;28;20214;-64
2021/09/24 08:55:46;;;;;;;7.53;4.88;;;23.50;99.90;;;;;;5032629;28;20308;-64
2021/09/24 08:58:13;;;;;;;6.70;4.90;;;23.70;99.90;;;;;;5032781;28;20213;-63
2021/09/24 09:00:42;;;;;;;6.22;4.95;;;23.60;99.90;;;;;;5032939;28;20233;-63
2021/09/24 09:03:11;;;;;;;5.88;4.35;;;23.60;99.90;;;;;;5032680;28;20694;-63
2021/09/24 09:05:41;;;;;;;7.13;4.13;;;23.50;99.90;;;;;;5032525;28;20210;-63
2021/09/24 09:08:11;;;;;;;7.70;4.32;;;23.30;99.90;;;;;;5032257;28;20206;-63
2021/09/24 09:10:44;;;;;;;6.18;4.32;;;23.10;99.90;;;;;;5032497;28;20233;-63
2021/09/24 09:13:14;;;;;;;5.65;4.28;;;23.00;99.90;;;;;;5032515;28;20268;-63
2021/09/24 09:15:41;;;;;;;4.32;3.85;;;22.80;99.90;;;;;;5032250;28;20664;-63
2021/09/24 09:18:18;;;;;;;9.75;7.05;;;22.80;99.90;;;;;;5032271;28;20202;-63
2021/09/24 09:20:48;;;;;;;7.75;5.45;;;22.80;99.90;;;;;;5032418;28;20230;-63
2021/09/24 09:23:15;;;;;;;6.97;4.32;;;22.80;99.90;;;;;;5032658;28;20210;-63
2021/09/24 09:25:43;;;;;;;4.97;3.97;;;22.80;99.90;;;;;;5032260;28;20455;-63
2021/09/24 09:28:12;;;;;;;6.63;4.57;;;22.80;99.90;;;;;;5032069;28;20685;-65
2021/09/24 09:30:42;;;;;;;7.15;4.53;;;22.70;99.90;;;;;;5032108;28;20229;-64
2021/09/24 09:33:15;;;;;;;6.78;4.00;;;22.70;99.90;;;;;;5032311;28;20214;-63
2021/09/24 09:35:43;;;;;;;7.55;5.38;;;22.80;99.90;;;;;;5032118;28;20203;-64
2021/09/24 09:38:20;;;;;;;5.05;4.45;;;22.90;99.90;;;;;;5032075;28;20202;-64
2021/09/24 09:40:51;;;;;;;6.85;4.22;;;23.20;99.90;;;;;;5031676;28;20721;-63
2021/09/24 09:43:23;;;;;;;6.78;4.18;;;23.40;99.90;;;;;;5031686;28;20214;-64
2021/09/24 09:45:50;;;;;;;6.40;3.67;;;23.50;99.90;;;;;;5031918;28;20217;-63
2021/09/24 09:48:17;;;;;;;5.47;3.40;;;23.60;99.90;;;;;;5031813;28;20217;-64
2021/09/24 09:50:44;;;;;;;10.48;6.60;;;23.60;99.90;;;;;;5032117;28;20245;-63
2021/09/24 09:53:12;;;;;;;5.93;3.78;;;23.60;99.90;;;;;;5031951;28;20202;-64
2021/09/24 09:55:42;;;;;;;6.97;3.28;;;23.50;99.90;;;;;;5032022;28;20203;-63
2021/09/24 09:58:11;;;;;;;4.60;3.47;;;23.50;99.90;;;;;;5031736;28;20210;-64
2021/09/24 10:00:54;;;;;;;5.90;3.28;;;23.50;99.90;;;;;;5033433;28;20234;-63
2021/09/24 10:03:32;;;;;;;4.32;3.25;;;23.50;99.90;;;;;;5033614;28;20228;-63
2021/09/24 10:05:59;;;;;;;5.25;3.72;;;23.30;99.90;;;;;;5033206;28;20213;-63
2021/09/24 10:08:28;;;;;;;3.60;3.10;;;22.80;99.90;;;;;;5032689;28;20573;-64
2021/09/24 10:11:02;;;;;;;8.65;6.20;;;22.30;99.90;;;;;;5067635;22;20252;-66
2021/09/24 10:13:32;;;;;;;7.20;3.60;;;22.20;99.90;;;;;;5071170;28;20216;-68
2021/09/24 10:15:59;;;;;;;4.35;3.10;;;22.30;99.90;;;;;;5071358;28;20561;-66
2021/09/24 10:18:26;;;;;;;4.00;3.13;;;22.40;99.90;;;;;;5070337;28;20262;-64
2021/09/24 10:20:53;;;;;;;5.18;3.05;;;22.50;99.90;;;;;;5070936;28;20232;-66
2021/09/24 10:23:19;;;;;;;7.18;3.35;;;22.60;99.90;;;;;;5070830;28;20597;-65
2021/09/24 10:25:55;;;;;;;4.65;3.40;;;22.70;99.90;;;;;;5070981;28;20213;-65
2021/09/24 10:28:29;;;;;;;6.65;3.83;;;22.60;99.90;;;;;;5070968;28;20204;-65
2021/09/24 10:30:56;;;;;;;7.10;4.20;;;22.60;99.90;;;;;;5070448;28;20742;-64
2021/09/24 10:33:47;;;;;;;6.78;3.85;;;22.80;99.90;;;;;;5070575;28;20212;-65
2021/09/24 10:36:33;;;;;;;10.65;5.43;;;23.00;99.90;;;;;;5071167;28;20218;-65
2021/09/24 10:39:00;;;;;;;9.32;5.68;;;23.10;99.90;;;;;;5070894;28;20209;-64
2021/09/24 10:41:26;;;;;;;9.77;7.25;;;23.00;99.90;;;;;;5070754;28;20315;-66
2021/09/24 10:43:56;;;;;;;12.77;8.30;;;22.50;99.90;;;;;;5070474;28;20232;-66
2021/09/24 10:46:39;;;;;;;15.82;9.10;;;22.10;99.90;;;;;;5071108;28;20208;-64
2021/09/24 10:49:31;;;;;;;6.47;3.95;;;22.00;99.90;;;;;;5067419;28;20870;-60
2021/09/24 10:52:14;;;;;;;5.75;3.60;;;22.30;99.90;;;;;;5056260;28;20218;-63
2021/09/24 10:54:58;;;;;;;6.32;4.15;;;22.50;99.90;;;;;;5068014;28;20213;-60
2021/09/24 10:57:30;;;;;;;6.25;3.65;;;22.80;99.90;;;;;;5070307;28;20302;-63
2021/09/24 11:00:27;;;;;;;5.22;3.30;;;22.90;99.90;;;;;;5050253;28;20241;-62
2021/09/24 11:03:09;;;;;;;4.07;3.30;;;23.30;99.90;;;;;;5050286;28;20233;-61
2021/09/24 11:06:01;;;;;;;4.18;3.30;;;23.50;99.90;;;;;;5050315;28;20643;-59
2021/09/24 11:08:59;;;;;;;5.20;3.30;;;23.90;99.90;;;;;;5050498;28;20287;-61
2021/09/24 11:11:34;;;;;;;8.25;3.20;;;24.30;99.90;;;;;;5037993;28;20229;-61
2021/09/24 11:14:20;;;;;;;5.78;3.33;;;24.80;99.90;;;;;;5050317;28;20338;-59
2021/09/24 11:16:48;;;;;;;5.10;3.90;;;25.20;99.90;;;;;;5050884;28;20213;-61
2021/09/24 11:19:33;;;;;;;4.40;3.30;;;25.30;99.80;;;;;;5050283;28;20656;-61
2021/09/24 11:22:06;;;;;;;8.30;3.78;;;24.80;99.90;;;;;;5050265;28;20230;-60
2021/09/24 11:24:35;;;;;;;6.13;4.20;;;24.30;99.90;;;;;;5050245;28;20213;-60
2021/09/24 11:27:05;;;;;;;4.32;3.40;;;24.20;99.90;;;;;;5050487;28;20254;-60
2021/09/24 11:29:35;;;;;;;8.25;3.95;;;24.10;99.90;;;;;;5051715;28;20209;-60
2021/09/24 11:32:11;;;;;;;9.63;4.90;;;24.00;99.90;;;;;;5054228;28;20229;-61
2021/09/24 11:34:54;;;;;;;6.18;3.90;;;24.00;99.90;;;;;;5054334;28;20206;-60
2021/09/24 11:37:22;;;;;;;5.10;3.30;;;24.00;99.90;;;;;;5053933;28;20236;-59
2021/09/24 11:39:56;;;;;;;7.50;3.03;;;24.20;99.90;;;;;;5053687;28;20213;-59
2021/09/24 11:42:23;;;;;;;5.32;3.25;;;24.20;99.90;;;;;;5053511;28;20291;-65
2021/09/24 11:44:53;;;;;;;4.35;3.17;;;24.10;99.90;;;;;;5053971;28;20311;-59
2021/09/24 11:47:23;;;;;;;7.10;3.50;;;24.20;99.90;;;;;;5053914;28;20213;-59
2021/09/24 11:49:55;;;;;;;4.78;3.33;;;24.40;99.80;;;;;;5053677;28;20213;-59
2021/09/24 11:52:22;;;;;;;3.55;3.05;;;24.30;99.90;;;;;;5053670;28;20229;-60
2021/09/24 11:54:49;;;;;;;4.05;2.90;;;24.50;99.10;;;;;;5053571;28;20209;-58
2021/09/24 11:57:16;;;;;;;4.40;3.30;;;24.80;99.00;;;;;;5054369;28;20237;-59
2021/09/24 11:59:44;;;;;;;6.22;4.00;;;25.10;98.90;;;;;;5053758;28;20626;-60
2021/09/24 12:02:21;;;;;;;4.88;3.58;;;25.00;98.70;;;;;;5053674;28;20229;-60
2021/09/24 12:04:58;;;;;;;4.55;3.30;;;25.00;99.10;;;;;;5053303;28;20229;-61
2021/09/24 12:07:25;;;;;;;6.40;3.20;;;24.90;98.90;;;;;;5054432;28;20237;-61
2021/09/24 12:09:57;;;;;;;4.80;3.60;;;24.80;99.10;;;;;;5053368;28;20621;-61
2021/09/24 12:12:24;;;;;;;5.75;3.30;;;24.70;98.90;;;;;;5053797;28;20720;-60
2021/09/24 12:15:01;;;;;;;5.97;3.35;;;24.70;98.50;;;;;;5053792;28;20216;-61
2021/09/24 12:17:31;;;;;;;5.10;2.90;;;24.70;98.60;;;;;;5053383;28;20209;-62
2021/09/24 12:19:59;;;;;;;6.85;3.20;;;24.80;98.00;;;;;;5053589;28;20213;-61
2021/09/24 12:22:26;;;;;;;3.13;2.83;;;24.80;98.30;;;;;;5053816;28;20229;-61
2021/09/24 12:24:53;;;;;;;4.32;3.40;;;24.80;97.90;;;;;;5053212;28;20619;-62
2021/09/24 12:27:26;;;;;;;5.72;3.58;;;24.90;97.50;;;;;;5053327;28;20736;-63
2021/09/24 12:29:53;;;;;;;7.05;3.40;;;24.90;97.30;;;;;;5053349;28;20264;-63
2021/09/24 12:32:22;;;;;;;6.65;3.13;;;24.90;96.40;;;;;;5053216;28;20225;-62
2021/09/24 12:34:52;;;;;;;9.32;4.18;;;24.70;96.50;;;;;;5053108;28;20558;-63
2021/09/24 12:37:22;;;;;;;5.93;3.28;;;24.40;97.40;;;;;;5053536;28;20206;-60
2021/09/24 12:39:57;;;;;;;10.15;3.30;;;24.40;98.10;;;;;;5053544;28;20292;-61
2021/09/24 12:42:23;;;;;;;9.40;2.88;;;24.50;98.20;;;;;;5053293;28;20225;-63
2021/09/24 12:44:53;;;;;;;3.10;2.80;;;24.70;98.00;;;;;;5053097;28;20651;-60
2021/09/24 12:47:25;;;;;;;4.70;2.80;;;24.80;97.00;;;;;;5053502;28;20206;-60
2021/09/24 12:49:54;;;;;;;3.50;2.67;;;24.90;96.40;;;;;;5053557;28;20672;-59
2021/09/24 12:52:23;;;;;;;6.30;3.08;;;24.90;96.50;;;;;;5053494;28;20271;-59